createdAt,value
2022-08-03T00:01:50.746Z,98368.81
2022-08-03T00:04:21.302Z,98367.27
2022-08-03T00:07:04.309Z,98366.61
2022-08-03T00:09:35.472Z,98364.42
2022-08-03T00:12:07.153Z,98364.61
2022-08-03T00:14:37.724Z,98362.91
2022-08-03T00:17:08.108Z,98359.31
2022-08-03T00:19:38.471Z,98361.67
2022-08-03T00:22:08.935Z,98360.52
2022-08-03T00:24:39.309Z,98357.34
2022-08-03T00:27:09.683Z,98359.70
2022-08-03T00:29:59.622Z,98361.26
2022-08-03T00:32:30.451Z,98365.34
2022-08-03T00:35:09.243Z,98362.96
2022-08-03T00:37:41.999Z,98363.34
2022-08-03T00:40:14.915Z,98360.39
2022-08-03T00:42:53.741Z,98358.46
2022-08-03T00:45:27.235Z,98360.41
2022-08-03T00:47:58.194Z,98362.57
2022-08-03T00:50:30.775Z,98362.98
2022-08-03T00:53:00.340Z,98365.46
2022-08-03T00:55:30.701Z,98367.18
2022-08-03T00:58:01.477Z,98361.98
2022-08-03T01:00:31.817Z,98362.60
2022-08-03T01:03:02.183Z,98362.27
2022-08-03T01:05:33.915Z,98362.40
2022-08-03T01:08:07.244Z,98358.45
2022-08-03T01:10:42.984Z,98363.27
2022-08-03T01:14:04.309Z,98359.58
2022-08-03T01:16:36.956Z,98355.67
2022-08-03T01:19:18.411Z,98356.58
2022-08-03T01:21:59.144Z,98353.57
2022-08-03T01:24:40.919Z,98353.42
2022-08-03T01:27:12.658Z,98351.34
2022-08-03T01:30:09.402Z,98352.27
2022-08-03T01:32:53.427Z,98353.20
2022-08-03T01:35:38.745Z,98352.10
2022-08-03T01:38:14.868Z,98347.79
2022-08-03T01:40:46.965Z,98347.36
2022-08-03T01:44:27.653Z,98348.33
2022-08-03T01:46:10.155Z,98343.16
2022-08-03T01:48:42.595Z,98341.02
2022-08-03T01:51:13.224Z,98343.16
2022-08-03T01:53:43.846Z,98344.00
2022-08-03T01:56:14.934Z,98346.58
2022-08-03T01:58:46.916Z,98338.09
2022-08-03T02:01:18.847Z,98336.87
2022-08-03T02:03:59.544Z,98334.54
2022-08-03T02:07:02.230Z,98330.55
2022-08-03T02:09:23.842Z,98333.83
2022-08-03T02:11:55.618Z,98334.47
2022-08-03T02:14:26.269Z,98329.38
2022-08-03T02:16:57.207Z,98329.07
2022-08-03T02:19:33.769Z,98336.91
2022-08-03T02:22:08.466Z,98333.40
2022-08-03T02:24:38.960Z,98330.21
2022-08-03T02:27:14.333Z,98329.48
2022-08-03T02:29:45.568Z,98326.45
2022-08-03T02:32:21.342Z,98327.39
2022-08-03T02:34:54.235Z,98331.10
2022-08-03T02:37:28.762Z,98330.30
2022-08-03T02:40:02.372Z,98329.21
2022-08-03T02:42:34.642Z,98329.03
2022-08-03T02:45:09.062Z,98331.03
2022-08-03T02:47:53.470Z,98328.14
2022-08-03T02:50:26.272Z,98327.60
2022-08-03T02:52:57.624Z,98323.13
2022-08-03T02:55:28.893Z,98325.36
2022-08-03T02:58:01.392Z,98323.77
2022-08-03T03:00:33.165Z,98326.71
2022-08-03T03:03:04.455Z,98319.17
2022-08-03T03:05:52.043Z,98322.02
2022-08-03T03:08:28.282Z,98318.73
2022-08-03T03:11:01.139Z,98319.20
2022-08-03T03:13:32.747Z,98314.77
2022-08-03T03:16:05.717Z,98317.49
2022-08-03T03:18:36.629Z,98322.31
2022-08-03T03:21:08.888Z,98317.46
2022-08-03T03:23:40.434Z,98317.37
2022-08-03T03:26:11.212Z,98320.60
2022-08-03T03:28:41.812Z,98319.27
2022-08-03T03:31:12.271Z,98323.33
2022-08-03T03:33:42.868Z,98320.98
2022-08-03T03:36:13.204Z,98322.95
2022-08-03T03:38:43.603Z,98326.85
2022-08-03T03:41:14.113Z,98327.26
2022-08-03T03:43:44.740Z,98330.56
2022-08-03T03:46:16.428Z,98328.77
2022-08-03T03:48:46.926Z,98328.80
2022-08-03T03:51:17.686Z,98329.14
2022-08-03T03:53:59.109Z,98327.65
2022-08-03T03:56:30.093Z,98329.45
2022-08-03T03:59:00.533Z,98327.68
2022-08-03T04:01:31.050Z,98330.06
2022-08-03T04:04:22.036Z,98326.84
2022-08-03T04:07:10.003Z,98324.73
2022-08-03T04:09:59.310Z,98322.41
2022-08-03T04:12:40.147Z,98325.66
2022-08-03T04:15:23.660Z,98323.83
2022-08-03T04:17:55.990Z,98324.52
2022-08-03T04:20:27.323Z,98324.27
2022-08-03T04:23:00.030Z,98324.99
2022-08-03T04:25:29.581Z,98318.98
2022-08-03T04:28:20.920Z,98315.98
2022-08-03T04:30:53.425Z,98318.27
2022-08-03T04:33:25.016Z,98315.45
2022-08-03T04:36:03.598Z,98318.97
2022-08-03T04:38:37.248Z,98321.36
2022-08-03T04:41:08.180Z,98320.42
2022-08-03T04:43:40.883Z,98321.59
2022-08-03T04:46:10.005Z,98323.77
2022-08-03T04:48:44.383Z,98324.89
2022-08-03T04:51:16.691Z,98326.09
2022-08-03T04:53:47.141Z,98328.36
2022-08-03T04:56:17.511Z,98331.59
2022-08-03T04:58:48.030Z,98333.12
2022-08-03T05:01:20.395Z,98331.45
2022-08-03T05:03:51.550Z,98336.37
2022-08-03T05:06:21.942Z,98335.47
2022-08-03T05:08:55.871Z,98334.69
2022-08-03T05:11:26.779Z,98334.95
2022-08-03T05:13:57.148Z,98336.55
2022-08-03T05:16:27.506Z,98336.52
2022-08-03T05:18:57.846Z,98338.88
2022-08-03T05:21:52.596Z,98338.00
2022-08-03T05:24:18.836Z,98341.84
2022-08-03T05:26:49.225Z,98345.36
2022-08-03T05:29:19.667Z,98350.83
2022-08-03T05:31:49.991Z,98347.88
2022-08-03T05:34:20.374Z,98351.84
2022-08-03T05:36:50.742Z,98351.52
2022-08-03T05:39:21.071Z,98349.73
2022-08-03T05:41:51.395Z,98352.67
2022-08-03T05:44:22.090Z,98363.77
2022-08-03T05:46:52.495Z,98361.39
2022-08-03T05:49:23.450Z,98360.53
2022-08-03T05:51:59.965Z,98355.97
2022-08-03T05:54:55.590Z,98356.26
2022-08-03T05:57:28.177Z,98357.27
2022-08-03T05:59:58.991Z,98365.62
2022-08-03T06:02:29.610Z,98364.48
2022-08-03T06:05:00.013Z,98362.70
2022-08-03T06:07:30.840Z,98360.43
2022-08-03T06:10:37.286Z,98365.40
2022-08-03T06:12:52.594Z,98361.59
2022-08-03T06:15:24.066Z,98366.30
2022-08-03T06:18:00.086Z,98365.03
2022-08-03T06:20:32.855Z,98360.91
2022-08-03T06:23:03.199Z,98365.88
2022-08-03T06:25:33.664Z,98369.83
2022-08-03T06:28:05.164Z,98367.03
2022-08-03T06:30:36.129Z,98369.96
2022-08-03T06:33:08.263Z,98365.45
2022-08-03T06:35:38.771Z,98365.31
2022-08-03T06:38:12.966Z,98364.16
2022-08-03T06:40:43.408Z,98365.30
2022-08-03T06:43:15.467Z,98368.14
2022-08-03T06:45:47.616Z,98366.18
2022-08-03T06:48:18.462Z,98367.30
2022-08-03T06:50:48.971Z,98370.59
2022-08-03T06:53:19.961Z,98364.80
2022-08-03T06:55:54.647Z,98368.69
2022-08-03T06:58:25.729Z,98366.59
2022-08-03T07:00:56.129Z,98369.17
2022-08-03T07:03:28.729Z,98369.58
2022-08-03T07:05:59.203Z,98371.58
2022-08-03T07:08:34.241Z,98373.36
2022-08-03T07:11:08.405Z,98373.69
2022-08-03T07:13:42.203Z,98375.46
2022-08-03T07:16:18.995Z,98369.89
2022-08-03T07:18:57.988Z,98371.34
2022-08-03T07:21:29.568Z,98370.87
2022-08-03T07:24:01.374Z,98372.50
2022-08-03T07:26:30.333Z,98372.79
2022-08-03T07:29:01.513Z,98374.64
2022-08-03T07:31:34.428Z,98371.50
2022-08-03T07:34:05.102Z,98366.95
2022-08-03T07:36:35.435Z,98373.20
2022-08-03T07:39:16.611Z,98373.77
2022-08-03T07:41:51.376Z,98379.80
2022-08-03T07:44:21.981Z,98382.37
2022-08-03T07:46:52.375Z,98381.08
2022-08-03T07:49:23.291Z,98379.88
2022-08-03T07:52:07.849Z,98382.95
2022-08-03T08:00:28.146Z,98380.34
2022-08-03T08:03:07.445Z,98377.02
2022-08-03T08:05:40.141Z,98379.19
2022-08-03T08:08:15.380Z,98382.86
2022-08-03T08:10:57.779Z,98377.34
2022-08-03T08:13:36.387Z,98375.98
2022-08-03T08:16:08.430Z,98370.19
2022-08-03T08:18:39.532Z,98372.05
2022-08-03T08:21:10.876Z,98363.77
2022-08-03T08:23:46.221Z,98363.91
2022-08-03T08:26:27.437Z,98364.73
2022-08-03T08:28:57.768Z,98366.65
2022-08-03T08:31:28.200Z,98364.75
2022-08-03T08:34:07.542Z,98364.02
2022-08-03T08:36:38.488Z,98360.52
2022-08-03T08:39:11.346Z,98362.58
2022-08-03T08:41:46.089Z,98361.36
2022-08-03T08:44:17.728Z,98360.50
2022-08-03T08:46:48.160Z,98359.22
2022-08-03T08:49:21.113Z,98361.51
2022-08-03T08:52:00.647Z,98361.46
2022-08-03T08:54:37.256Z,98358.24
2022-08-03T08:57:33.032Z,98364.98
2022-08-03T09:00:06.851Z,98360.13
2022-08-03T09:02:37.813Z,98358.41
2022-08-03T09:05:10.605Z,98358.56
2022-08-03T09:07:41.772Z,98363.00
2022-08-03T09:10:14.010Z,98358.70
2022-08-03T09:12:47.173Z,98362.83
2022-08-03T09:15:31.908Z,98358.48
2022-08-03T09:18:04.338Z,98358.58
2022-08-03T09:20:36.744Z,98359.96
2022-08-03T09:23:44.652Z,98362.71
2022-08-03T09:26:01.690Z,98361.56
2022-08-03T09:29:00.868Z,98363.14
2022-08-03T09:31:38.775Z,98361.73
2022-08-03T09:34:10.661Z,98362.69
2022-08-03T09:36:43.789Z,98362.52
2022-08-03T09:39:16.011Z,98363.09
2022-08-03T09:41:52.017Z,98358.80
2022-08-03T09:44:36.911Z,98364.64
2022-08-03T09:47:07.997Z,98359.63
2022-08-03T09:49:42.406Z,98356.64
2022-08-03T09:52:37.731Z,98356.77
2022-08-03T09:56:30.812Z,98352.67
2022-08-03T09:58:09.515Z,98350.55
2022-08-03T10:00:55.994Z,98349.70
2022-08-03T10:03:28.235Z,98352.45
2022-08-03T10:06:00.122Z,98359.26
2022-08-03T10:08:32.398Z,98351.86
2022-08-03T10:11:03.071Z,98354.48
2022-08-03T10:13:33.815Z,98349.66
2022-08-03T10:16:21.817Z,98344.85
2022-08-03T10:18:57.636Z,98339.94
2022-08-03T10:21:29.530Z,98336.08
2022-08-03T10:24:00.127Z,98334.94
2022-08-03T10:26:34.593Z,98333.26
2022-08-03T10:29:12.889Z,98331.08
2022-08-03T10:31:55.926Z,98330.33
2022-08-03T10:34:30.404Z,98325.93
2022-08-03T10:37:01.986Z,98326.77
2022-08-03T10:39:33.129Z,98315.11
2022-08-03T10:42:04.465Z,98319.50
2022-08-03T10:44:41.782Z,98316.89
2022-08-03T10:47:13.023Z,98319.02
2022-08-03T10:49:44.112Z,98313.80
2022-08-03T10:52:31.802Z,98310.20
2022-08-03T10:55:21.862Z,98307.01
2022-08-03T10:57:58.521Z,98303.99
2022-08-03T11:00:30.758Z,98294.83
2022-08-03T11:03:09.600Z,98301.05
2022-08-03T11:05:42.320Z,98302.74
2022-08-03T11:08:27.873Z,98295.90
2022-08-03T11:11:00.379Z,98301.95
2022-08-03T11:13:33.727Z,98296.90
2022-08-03T11:16:21.926Z,98293.11
2022-08-03T11:19:00.415Z,98292.21
2022-08-03T11:21:57.858Z,98291.92
2022-08-03T11:25:03.197Z,98284.04
2022-08-03T11:27:39.989Z,98283.59
2022-08-03T11:30:13.861Z,98286.88
2022-08-03T11:32:59.706Z,98289.14
2022-08-03T11:35:31.376Z,98290.92
2022-08-03T11:38:13.083Z,98295.36
2022-08-03T11:40:45.711Z,98284.04
2022-08-03T11:43:46.248Z,98280.70
2022-08-03T11:46:28.769Z,98279.50
2022-08-03T11:49:10.554Z,98275.73
2022-08-03T11:51:40.317Z,98278.20
2022-08-03T11:54:11.461Z,98278.52
2022-08-03T11:56:49.581Z,98279.67
2022-08-03T11:59:22.284Z,98276.17
2022-08-03T12:01:53.158Z,98275.34
2022-08-03T12:04:23.666Z,98274.44
2022-08-03T12:07:04.779Z,98271.50
2022-08-03T12:09:36.207Z,98268.89
2022-08-03T12:12:07.432Z,98264.91
2022-08-03T12:14:49.818Z,98260.77
2022-08-03T12:17:23.065Z,98263.07
2022-08-03T12:19:54.187Z,98264.45
2022-08-03T12:22:35.269Z,98264.42
2022-08-03T12:25:06.201Z,98262.20
2022-08-03T12:27:36.840Z,98260.36
2022-08-03T12:30:08.697Z,98258.29
2022-08-03T12:32:39.262Z,98254.91
2022-08-03T12:35:10.979Z,98258.90
2022-08-03T12:37:41.622Z,98253.39
2022-08-03T12:40:20.549Z,98261.09
2022-08-03T12:42:53.417Z,98255.45
2022-08-03T12:45:26.486Z,98247.77
2022-08-03T12:47:58.522Z,98248.31
2022-08-03T12:50:32.959Z,98247.83
2022-08-03T12:53:05.297Z,98245.55
2022-08-03T12:55:57.651Z,98242.57
2022-08-03T12:58:35.372Z,98246.02
2022-08-03T13:01:09.258Z,98244.36
2022-08-03T13:03:45.679Z,98246.13
2022-08-03T13:06:22.596Z,98249.86
2022-08-03T13:09:04.368Z,98242.95
2022-08-03T13:11:57.995Z,98242.69
2022-08-03T13:14:25.406Z,98238.63
2022-08-03T13:16:55.887Z,98238.48
2022-08-03T13:19:26.853Z,98232.25
2022-08-03T13:22:04.438Z,98230.93
2022-08-03T13:24:35.842Z,98229.98
2022-08-03T13:28:11.027Z,98227.40
2022-08-03T13:29:58.450Z,98226.92
2022-08-03T13:32:28.919Z,98224.33
2022-08-03T13:34:59.274Z,98224.17
2022-08-03T13:37:29.761Z,98223.72
2022-08-03T13:40:02.530Z,98222.88
2022-08-03T13:42:35.712Z,98220.44
2022-08-03T13:45:08.900Z,98220.65
2022-08-03T13:47:39.274Z,98218.83
2022-08-03T13:50:08.752Z,98212.70
2022-08-03T13:52:39.216Z,98209.92
2022-08-03T13:55:10.917Z,98210.55
2022-08-03T13:58:04.732Z,98207.89
2022-08-03T14:00:32.366Z,98207.00
2022-08-03T14:03:12.844Z,98200.22
2022-08-03T14:05:44.678Z,98197.55
2022-08-03T14:08:15.437Z,98198.35
2022-08-03T14:10:46.733Z,98192.39
2022-08-03T14:13:17.933Z,98197.50
2022-08-03T14:15:50.029Z,98194.08
2022-08-03T14:18:29.345Z,98194.21
2022-08-03T14:21:06.427Z,98194.16
2022-08-03T14:23:38.560Z,98192.13
2022-08-03T14:26:09.920Z,98191.38
2022-08-03T14:28:40.266Z,98187.59
2022-08-03T14:32:09.093Z,98189.19
2022-08-03T14:34:01.249Z,98186.05
2022-08-03T14:36:31.577Z,98185.05
2022-08-03T14:39:02.094Z,98184.61
2022-08-03T14:41:32.441Z,98180.81
2022-08-03T14:44:02.822Z,98180.47
2022-08-03T14:46:33.469Z,98178.09
2022-08-03T14:50:36.976Z,98177.80
2022-08-03T14:51:56.577Z,98171.11
2022-08-03T14:54:31.574Z,98171.91
2022-08-03T14:57:05.468Z,98172.92
2022-08-03T14:59:55.809Z,98171.95
2022-08-03T15:02:30.690Z,98164.98
2022-08-03T15:05:04.735Z,98163.07
2022-08-03T15:07:38.281Z,98161.81
2022-08-03T15:10:12.648Z,98159.35
2022-08-03T15:12:45.706Z,98156.18
2022-08-03T15:15:18.716Z,98154.58
2022-08-03T15:18:00.485Z,98153.52
2022-08-03T15:20:50.403Z,98151.32
2022-08-03T15:23:23.744Z,98142.38
2022-08-03T15:26:30.239Z,98142.32
2022-08-03T15:28:50.893Z,98136.59
2022-08-03T15:31:27.835Z,98131.77
2022-08-03T15:34:01.808Z,98132.45
2022-08-03T15:36:36.115Z,98125.75
2022-08-03T15:39:11.004Z,98121.11
2022-08-03T15:41:45.690Z,98121.65
2022-08-03T15:49:03.097Z,98114.86
2022-08-03T15:51:39.056Z,98116.34
2022-08-03T16:00:44.352Z,98103.45
2022-08-03T16:03:16.298Z,98103.04
2022-08-03T16:05:47.117Z,98101.91
2022-08-03T16:08:17.802Z,98098.10
2022-08-03T16:10:49.517Z,98095.30
2022-08-03T16:13:21.458Z,98094.65
2022-08-03T16:16:12.655Z,98091.20
2022-08-03T16:18:43.961Z,98090.98
2022-08-03T16:21:19.437Z,98092.27
2022-08-03T16:23:51.198Z,98087.92
2022-08-03T16:26:23.236Z,98089.04
2022-08-03T16:28:59.203Z,98089.45
2022-08-03T16:31:31.513Z,98091.97
2022-08-03T16:34:02.578Z,98089.05
2022-08-03T16:36:34.961Z,98092.61
2022-08-03T16:39:06.409Z,98093.03
2022-08-03T16:41:54.526Z,98093.75
2022-08-03T16:44:32.018Z,98092.95
2022-08-03T16:47:06.323Z,98092.18
2022-08-03T16:49:55.125Z,98090.21
2022-08-03T16:52:27.400Z,98085.59
2022-08-03T16:54:58.922Z,98085.71
2022-08-03T16:57:59.523Z,98084.41
2022-08-03T17:00:34.073Z,98086.62
2022-08-03T17:03:20.798Z,98082.71
2022-08-03T17:05:59.584Z,98085.46
2022-08-03T17:08:32.610Z,98090.94
2022-08-03T17:11:03.368Z,98092.33
2022-08-03T17:13:39.469Z,98092.75
2022-08-03T17:16:15.310Z,98091.16
2022-08-03T17:18:54.412Z,98088.48
2022-08-03T17:21:29.454Z,98086.80
2022-08-03T17:24:12.453Z,98088.66
2022-08-03T17:26:44.958Z,98086.13
2022-08-03T17:29:18.129Z,98089.62
2022-08-03T17:31:49.881Z,98087.89
2022-08-03T17:34:26.329Z,98083.62
2022-08-03T17:37:06.070Z,98084.98
2022-08-03T17:42:32.959Z,98080.27
2022-08-03T17:45:06.620Z,98077.95
2022-08-03T17:47:42.151Z,98088.25
2022-08-03T17:50:24.086Z,98086.54
2022-08-03T17:53:07.154Z,98085.05
2022-08-03T17:55:55.779Z,98090.50
2022-08-03T17:58:41.223Z,98090.69
2022-08-03T18:02:02.719Z,98084.45
2022-08-03T18:07:25.015Z,98084.86
2022-08-03T18:10:15.189Z,98084.79
2022-08-03T18:12:52.715Z,98087.91
2022-08-03T18:15:31.981Z,98085.73
2022-08-03T18:18:10.481Z,98081.95
2022-08-03T18:20:42.653Z,98085.30
2022-08-03T18:23:25.009Z,98086.48
2022-08-03T18:26:11.878Z,98089.37
2022-08-03T18:28:58.698Z,98086.96
2022-08-03T18:31:59.667Z,98091.63
2022-08-03T18:34:33.003Z,98090.94
2022-08-03T18:37:07.832Z,98089.12
2022-08-03T18:42:32.247Z,98088.98
2022-08-03T18:45:54.987Z,98096.02
2022-08-03T18:48:02.366Z,98096.95
2022-08-03T18:50:37.381Z,98094.55
2022-08-03T18:53:19.568Z,98092.69
2022-08-03T18:56:02.146Z,98092.95
2022-08-03T18:58:53.065Z,98093.16
2022-08-03T19:01:59.087Z,98092.52
2022-08-03T19:04:34.589Z,98094.92
2022-08-03T19:07:08.102Z,98095.45
2022-08-03T19:09:49.437Z,98103.17
2022-08-03T19:12:28.062Z,98103.30
2022-08-03T19:15:10.529Z,98102.25
2022-08-03T19:17:50.313Z,98107.23
2022-08-03T19:20:26.883Z,98108.74
2022-08-03T19:23:00.967Z,98108.73
2022-08-03T19:30:26.139Z,98117.23
2022-08-03T19:32:58.044Z,98115.64
2022-08-03T19:35:51.399Z,98120.22
2022-08-03T19:38:27.397Z,98121.89
2022-08-03T19:41:02.552Z,98119.48
2022-08-03T19:43:52.829Z,98120.05
2022-08-03T19:46:31.146Z,98119.63
2022-08-03T19:49:04.714Z,98119.80
2022-08-03T19:51:56.687Z,98116.77
2022-08-03T19:54:36.740Z,98113.61
2022-08-03T19:57:19.031Z,98113.88
2022-08-03T19:59:50.720Z,98110.91
2022-08-03T20:02:25.781Z,98114.66
2022-08-03T20:05:00.021Z,98116.76
2022-08-03T20:07:32.975Z,98116.62
2022-08-03T20:10:05.999Z,98115.71
2022-08-03T20:12:39.390Z,98116.77
2022-08-03T20:15:09.159Z,98115.92
2022-08-03T20:17:57.068Z,98114.71
2022-08-03T20:20:32.654Z,98112.05
2022-08-03T20:23:07.144Z,98120.42
2022-08-03T20:25:48.726Z,98117.05
2022-08-03T20:28:27.430Z,98116.68
2022-08-03T20:30:58.469Z,98113.73
2022-08-03T20:33:46.686Z,98118.58
2022-08-03T20:36:19.912Z,98120.90
2022-08-03T20:38:51.970Z,98124.13
2022-08-03T20:41:21.156Z,98119.41
2022-08-03T20:43:52.041Z,98117.26
2022-08-03T20:46:31.719Z,98114.50
2022-08-03T20:49:09.192Z,98113.87
2022-08-03T20:51:49.566Z,98117.34
2022-08-03T20:54:33.873Z,98118.63
2022-08-03T20:59:57.227Z,98120.79
2022-08-03T21:02:29.603Z,98116.80
2022-08-03T21:05:08.479Z,98112.17
2022-08-03T21:08:04.096Z,98113.89
2022-08-03T21:10:37.981Z,98108.75
2022-08-03T21:12:56.492Z,98086.23
2022-08-03T21:12:58.867Z,98088.78
2022-08-03T21:13:13.491Z,98119.90
2022-08-03T21:13:17.487Z,98108.36
2022-08-03T21:16:06.065Z,98105.36
2022-08-03T21:18:46.696Z,98104.05
2022-08-03T21:21:19.053Z,98104.83
2022-08-03T21:23:53.727Z,98100.57
2022-08-03T21:26:26.239Z,98104.25
2022-08-03T21:28:57.992Z,98100.04
2022-08-03T21:31:28.436Z,98100.45
2022-08-03T21:34:01.991Z,98099.82
2022-08-03T21:36:34.485Z,98098.87
2022-08-03T21:39:07.698Z,98099.23
2022-08-03T21:41:39.912Z,98097.52
2022-08-03T21:44:10.632Z,98098.11
2022-08-03T21:46:42.264Z,98093.58
2022-08-03T21:50:07.377Z,98094.58
2022-08-03T21:52:07.140Z,98094.07
2022-08-03T21:54:39.351Z,98094.15
2022-08-03T21:57:19.259Z,98093.98
2022-08-03T21:59:55.603Z,98096.64
2022-08-03T22:02:32.177Z,98095.75
2022-08-03T22:05:05.294Z,98094.23
2022-08-03T22:07:39.017Z,98091.69
2022-08-03T22:10:13.278Z,98089.97
2022-08-03T22:13:00.209Z,98086.52
2022-08-03T22:15:33.405Z,98085.19
2022-08-03T22:18:10.373Z,98083.27
2022-08-03T22:20:42.881Z,98086.73
2022-08-03T22:23:13.474Z,98084.77
2022-08-03T22:25:45.471Z,98087.41
2022-08-03T22:28:18.191Z,98085.30
2022-08-03T22:30:52.473Z,98087.23
2022-08-03T22:33:25.214Z,98086.37
2022-08-03T22:36:02.156Z,98087.16
2022-08-03T22:38:36.411Z,98089.33
2022-08-03T22:41:08.482Z,98090.04
2022-08-03T22:43:41.158Z,98090.30
2022-08-03T22:46:18.282Z,98085.91
2022-08-03T22:48:50.345Z,98091.19
2022-08-03T22:51:20.434Z,98095.66
2022-08-03T22:53:53.428Z,98097.18
2022-08-03T22:56:29.321Z,98094.98
2022-08-03T22:59:02.688Z,98097.25
2022-08-03T23:02:20.200Z,98092.77
2022-08-03T23:04:58.524Z,98097.10
2022-08-03T23:07:36.825Z,98098.02
2022-08-03T23:10:12.304Z,98102.12
2022-08-03T23:12:49.572Z,98100.33
2022-08-03T23:15:23.221Z,98104.20
2022-08-03T23:17:59.349Z,98101.66
2022-08-03T23:20:34.371Z,98101.66
2022-08-03T23:23:07.301Z,98099.61
2022-08-03T23:25:43.570Z,98099.70
2022-08-03T23:28:20.746Z,98103.02
2022-08-03T23:30:55.298Z,98099.23
2022-08-03T23:33:31.861Z,98098.15
2022-08-03T23:40:37.323Z,98094.23
2022-08-03T23:43:15.509Z,98096.11
2022-08-03T23:46:08.965Z,98096.73
2022-08-03T23:48:42.412Z,98095.15
2022-08-03T23:51:20.322Z,98092.32
